Time;durP1;ratioP1;P1;durP2;ratioP2;P2;SDS_P1;SDS_P2;PMS_P1;PMS_P2;Temp;Humidity;BMP_temperature;BMP_pressure;BME280_temperature;BME280_humidity;BME280_pressure;Samples;Min_cycle;Max_cycle;Signal;HPM_P1;HPM_P2
2022/12/29 00:02:08;;;;;;;0.30;0.30;;;7.10;99.90;;;;;;5037230;28;20189;-80
2022/12/29 00:04:34;;;;;;;0.23;0.23;;;7.10;99.90;;;;;;5061202;28;20484;-79
2022/12/29 00:06:59;;;;;;;0.20;0.20;;;7.20;99.90;;;;;;5062880;28;20191;-79
2022/12/29 00:09:26;;;;;;;0.23;0.23;;;7.10;99.90;;;;;;5065903;28;20758;-80
2022/12/29 00:11:51;;;;;;;0.30;0.30;;;7.20;99.90;;;;;;5070025;28;20653;-79
2022/12/29 00:17:02;;;;;;;0.30;0.30;;;7.20;99.90;;;;;;5062987;28;20231;-80
2022/12/29 00:36:14;;;;;;;0.20;0.20;;;7.40;99.90;;;;;;5058359;28;20452;-79
2022/12/29 00:44:14;;;;;;;0.20;0.20;;;7.50;99.90;;;;;;5063620;28;21098;-80
2022/12/29 00:46:42;;;;;;;0.20;0.20;;;7.40;99.90;;;;;;5044146;28;20531;-81
2022/12/29 00:51:55;;;;;;;0.30;0.30;;;7.60;99.90;;;;;;5053191;28;21037;-80
2022/12/29 00:54:21;;;;;;;0.20;0.20;;;7.60;99.90;;;;;;5045196;28;20489;-80
2022/12/29 00:56:51;;;;;;;0.20;0.20;;;7.60;99.90;;;;;;5044279;28;20460;-80
2022/12/29 00:59:18;;;;;;;0.30;0.30;;;7.60;99.90;;;;;;5068062;28;20218;-79
2022/12/29 01:01:44;;;;;;;0.20;0.20;;;7.60;99.90;;;;;;5069098;28;20448;-80
2022/12/29 01:04:10;;;;;;;0.20;0.20;;;7.60;99.90;;;;;;5069139;28;20472;-80
2022/12/29 01:06:39;;;;;;;0.30;0.30;;;7.60;99.90;;;;;;5068736;28;20455;-80
2022/12/29 01:11:50;;;;;;;0.20;0.20;;;7.70;99.90;;;;;;5066841;28;20599;-80
2022/12/29 01:14:16;;;;;;;0.23;0.23;;;7.70;99.90;;;;;;5069710;28;20951;-80
2022/12/29 01:16:42;;;;;;;0.30;0.30;;;7.70;99.90;;;;;;5064361;28;20190;-80
2022/12/29 01:19:07;;;;;;;0.20;0.20;;;7.70;99.90;;;;;;5065017;28;20452;-80
2022/12/29 01:21:33;;;;;;;0.20;0.20;;;7.70;99.90;;;;;;5067916;28;20273;-80
2022/12/29 01:23:58;;;;;;;0.20;0.20;;;7.80;99.90;;;;;;5061070;28;20608;-80
2022/12/29 01:26:24;;;;;;;0.30;0.30;;;7.80;99.90;;;;;;5067714;28;20307;-80
2022/12/29 01:28:49;;;;;;;0.20;0.20;;;7.80;99.90;;;;;;5039335;28;20240;-80
2022/12/29 01:31:15;;;;;;;0.20;0.20;;;7.90;99.90;;;;;;5058061;28;20186;-80
2022/12/29 01:33:42;;;;;;;0.20;0.20;;;7.90;99.90;;;;;;5066343;28;20223;-80
2022/12/29 01:36:10;;;;;;;0.20;0.20;;;7.90;99.90;;;;;;5061140;28;20657;-80
2022/12/29 01:38:37;;;;;;;0.20;0.20;;;7.90;99.90;;;;;;5063672;28;20482;-80
2022/12/29 01:41:04;;;;;;;0.20;0.20;;;7.90;99.90;;;;;;5048208;28;20472;-80
2022/12/29 01:44:23;;;;;;;0.30;0.30;;;7.90;99.90;;;;;;5045845;28;21043;-80
2022/12/29 01:46:51;;;;;;;0.20;0.20;;;7.90;99.90;;;;;;5001647;28;20946;-80
2022/12/29 01:49:23;;;;;;;0.20;0.20;;;7.90;99.90;;;;;;5055023;28;20495;-80
2022/12/29 01:51:55;;;;;;;0.20;0.20;;;8.00;99.90;;;;;;5059079;28;20882;-80
2022/12/29 01:54:27;;;;;;;0.20;0.20;;;8.00;99.90;;;;;;5065497;28;20801;-80
2022/12/29 01:56:54;;;;;;;0.20;0.20;;;8.00;99.90;;;;;;5068610;28;20531;-80
2022/12/29 01:59:25;;;;;;;0.20;0.20;;;8.00;99.90;;;;;;5067211;28;20468;-80
2022/12/29 02:01:51;;;;;;;0.20;0.20;;;8.00;99.90;;;;;;5055213;28;20445;-80
2022/12/29 02:04:17;;;;;;;0.30;0.30;;;8.00;99.90;;;;;;5031503;28;20550;-79
2022/12/29 02:07:02;;;;;;;0.23;0.23;;;8.00;99.90;;;;;;5015739;28;20655;-80
2022/12/29 02:09:28;;;;;;;0.20;0.20;;;8.00;99.90;;;;;;5030048;28;20442;-80
2022/12/29 02:11:54;;;;;;;0.20;0.20;;;8.10;99.90;;;;;;5040782;28;20459;-80
2022/12/29 02:14:19;;;;;;;0.20;0.20;;;8.10;99.90;;;;;;5039212;28;20449;-80
2022/12/29 02:17:11;;;;;;;0.20;0.20;;;8.10;99.90;;;;;;5041323;28;20216;-80
2022/12/29 02:20:01;;;;;;;0.20;0.20;;;8.10;99.90;;;;;;5038175;28;20709;-80
2022/12/29 02:23:16;;;;;;;0.20;0.20;;;8.10;99.90;;;;;;5028735;28;20430;-80
2022/12/29 02:26:24;;;;;;;0.20;0.20;;;8.10;99.90;;;;;;5024662;28;20960;-80
2022/12/29 02:29:31;;;;;;;0.20;0.20;;;8.10;99.90;;;;;;5028236;28;20480;-80
2022/12/29 02:32:13;;;;;;;0.20;0.20;;;8.10;99.90;;;;;;5039702;28;20455;-80
2022/12/29 02:34:53;;;;;;;0.20;0.20;;;8.10;99.90;;;;;;5040307;28;20594;-81
2022/12/29 02:37:26;;;;;;;0.20;0.20;;;8.10;99.90;;;;;;5043466;28;20480;-81
2022/12/29 02:40:24;;;;;;;0.23;0.23;;;8.10;99.90;;;;;;5046931;28;20496;-80
2022/12/29 02:42:59;;;;;;;0.20;0.20;;;8.10;99.90;;;;;;5047377;28;20456;-80
2022/12/29 02:45:24;;;;;;;0.20;0.20;;;8.10;99.90;;;;;;5040630;28;20440;-79
2022/12/29 02:47:54;;;;;;;0.20;0.20;;;8.10;99.90;;;;;;5029724;28;20495;-80
2022/12/29 02:50:26;;;;;;;0.20;0.20;;;8.10;99.90;;;;;;5020883;28;20187;-81
2022/12/29 02:52:58;;;;;;;0.30;0.30;;;8.10;99.90;;;;;;5041356;28;20456;-80
2022/12/29 02:55:23;;;;;;;0.20;0.20;;;8.10;99.90;;;;;;5030063;28;20452;-80
2022/12/29 02:58:04;;;;;;;0.30;0.30;;;8.20;99.90;;;;;;5032202;28;20646;-80
2022/12/29 03:00:30;;;;;;;0.20;0.20;;;8.20;99.90;;;;;;5037993;28;20226;-80
2022/12/29 03:03:20;;;;;;;0.20;0.20;;;8.20;99.90;;;;;;5051871;28;20449;-81
2022/12/29 03:06:10;;;;;;;0.20;0.20;;;8.20;99.90;;;;;;5057528;28;20445;-80
2022/12/29 03:08:49;;;;;;;0.27;0.27;;;8.20;99.90;;;;;;5070909;28;20497;-80
2022/12/29 03:17:24;;;;;;;0.20;0.20;;;8.30;99.90;;;;;;5051239;28;20448;-80
2022/12/29 03:19:53;;;;;;;0.20;0.20;;;8.30;99.90;;;;;;5068576;28;20483;-80
2022/12/29 03:22:28;;;;;;;0.27;0.27;;;8.30;99.90;;;;;;5051398;28;20825;-80
2022/12/29 03:25:06;;;;;;;0.20;0.20;;;8.30;99.90;;;;;;5043357;28;20432;-80
2022/12/29 03:28:09;;;;;;;0.20;0.20;;;8.30;99.90;;;;;;5065431;28;20467;-80
2022/12/29 03:30:37;;;;;;;0.30;0.30;;;8.30;99.90;;;;;;4973343;28;20540;-80
2022/12/29 03:33:07;;;;;;;0.20;0.20;;;8.30;99.90;;;;;;5038466;28;20461;-80
2022/12/29 03:35:37;;;;;;;0.20;0.20;;;8.40;99.90;;;;;;5070169;28;20432;-79
2022/12/29 03:38:13;;;;;;;0.20;0.20;;;8.40;99.90;;;;;;5068539;28;20611;-79
2022/12/29 03:40:42;;;;;;;0.20;0.20;;;8.50;99.90;;;;;;5071437;28;20475;-79
2022/12/29 03:43:09;;;;;;;0.30;0.30;;;8.50;99.90;;;;;;5043841;28;20440;-80
2022/12/29 03:45:34;;;;;;;0.20;0.20;;;8.50;99.90;;;;;;5069963;28;20810;-80
2022/12/29 03:48:00;;;;;;;0.20;0.20;;;8.60;99.90;;;;;;5054514;28;20449;-80
2022/12/29 03:50:25;;;;;;;0.30;0.30;;;8.50;99.90;;;;;;5047995;28;20182;-80
2022/12/29 03:52:51;;;;;;;0.20;0.20;;;8.50;99.90;;;;;;5063303;28;21362;-79
2022/12/29 03:55:16;;;;;;;0.20;0.20;;;8.50;99.90;;;;;;5034542;28;20190;-79
2022/12/29 03:57:42;;;;;;;0.20;0.20;;;8.50;99.90;;;;;;5051445;28;20252;-79
2022/12/29 04:00:08;;;;;;;0.20;0.20;;;8.60;99.90;;;;;;5062311;28;20224;-79
2022/12/29 04:02:33;;;;;;;0.20;0.20;;;8.60;99.90;;;;;;5049958;28;20182;-80
2022/12/29 04:04:59;;;;;;;0.20;0.20;;;8.60;99.90;;;;;;5070655;28;20484;-80
2022/12/29 04:07:24;;;;;;;0.20;0.20;;;8.60;99.90;;;;;;5063422;28;20182;-79
2022/12/29 04:09:50;;;;;;;0.20;0.20;;;8.70;99.90;;;;;;5050488;28;20276;-80
2022/12/29 04:12:16;;;;;;;0.20;0.20;;;8.70;99.90;;;;;;5066182;28;20645;-79
2022/12/29 04:14:41;;;;;;;0.20;0.20;;;8.70;99.90;;;;;;5039756;28;20437;-80
2022/12/29 04:17:07;;;;;;;0.20;0.20;;;8.70;99.90;;;;;;5064295;28;20208;-79
2022/12/29 04:19:32;;;;;;;0.20;0.20;;;8.70;99.90;;;;;;5067201;28;20218;-79
2022/12/29 04:21:58;;;;;;;0.20;0.20;;;8.70;99.90;;;;;;5068092;28;20221;-80
2022/12/29 04:24:23;;;;;;;0.20;0.20;;;8.70;99.90;;;;;;5065305;28;20557;-79
2022/12/29 04:26:49;;;;;;;0.20;0.20;;;8.70;99.90;;;;;;5067029;28;20193;-79
2022/12/29 04:29:14;;;;;;;0.20;0.20;;;8.70;99.90;;;;;;5064911;28;20193;-80
2022/12/29 04:31:40;;;;;;;0.20;0.20;;;8.70;99.90;;;;;;5049183;28;20643;-79
2022/12/29 04:34:05;;;;;;;0.20;0.20;;;8.70;99.90;;;;;;5068614;28;20221;-80
2022/12/29 04:36:31;;;;;;;0.20;0.20;;;8.70;99.90;;;;;;5069865;28;20561;-80
2022/12/29 04:38:57;;;;;;;0.20;0.20;;;8.80;99.90;;;;;;5045420;28;20273;-79
2022/12/29 04:41:22;;;;;;;0.20;0.20;;;8.70;99.90;;;;;;5063050;28;20217;-80
2022/12/29 04:43:48;;;;;;;0.30;0.30;;;8.70;99.90;;;;;;5069936;28;20189;-79
2022/12/29 04:46:13;;;;;;;0.30;0.30;;;8.70;99.90;;;;;;5067733;28;20664;-79
2022/12/29 04:48:38;;;;;;;0.20;0.20;;;8.70;99.90;;;;;;5050512;28;20182;-80
2022/12/29 04:51:04;;;;;;;0.20;0.20;;;8.80;99.90;;;;;;5069020;28;20659;-79
2022/12/29 04:53:30;;;;;;;0.20;0.20;;;8.80;99.90;;;;;;5068124;28;20190;-80
2022/12/29 04:55:55;;;;;;;0.20;0.20;;;8.80;99.90;;;;;;5066672;28;20216;-79
2022/12/29 04:58:21;;;;;;;0.20;0.20;;;8.70;99.90;;;;;;5063950;28;20190;-79
2022/12/29 05:00:47;;;;;;;0.20;0.20;;;8.70;99.90;;;;;;5062631;28;20308;-79
2022/12/29 05:03:12;;;;;;;0.20;0.20;;;8.70;99.90;;;;;;5067673;28;20559;-79
2022/12/29 05:05:38;;;;;;;0.30;0.30;;;8.80;99.90;;;;;;5053792;28;20261;-79
2022/12/29 05:08:03;;;;;;;0.20;0.20;;;8.80;99.90;;;;;;5067191;28;20709;-79
2022/12/29 05:10:29;;;;;;;0.20;0.20;;;8.80;99.90;;;;;;5064854;28;20182;-79
2022/12/29 05:12:55;;;;;;;0.30;0.30;;;8.80;99.90;;;;;;5065363;28;20255;-79
2022/12/29 05:15:20;;;;;;;0.20;0.20;;;8.80;99.90;;;;;;5069226;28;20201;-79
2022/12/29 05:17:46;;;;;;;0.20;0.20;;;8.80;99.90;;;;;;5059397;28;20266;-80
2022/12/29 05:20:11;;;;;;;0.20;0.20;;;8.90;99.90;;;;;;5057333;28;20218;-78
2022/12/29 05:22:37;;;;;;;0.30;0.30;;;8.90;99.90;;;;;;5070338;28;20204;-79
2022/12/29 05:25:03;;;;;;;0.20;0.20;;;8.90;99.90;;;;;;5066395;28;20545;-79
2022/12/29 05:27:28;;;;;;;0.20;0.20;;;9.00;99.90;;;;;;5061464;28;20195;-80
2022/12/29 05:29:54;;;;;;;0.20;0.20;;;9.00;99.90;;;;;;5056640;28;20564;-80
2022/12/29 05:32:19;;;;;;;0.20;0.20;;;9.00;99.90;;;;;;5039636;28;20574;-79
2022/12/29 05:34:45;;;;;;;0.20;0.20;;;8.90;99.90;;;;;;5049202;28;20193;-79
2022/12/29 05:37:10;;;;;;;0.20;0.20;;;8.90;99.90;;;;;;5065519;28;20345;-80
2022/12/29 05:39:36;;;;;;;0.20;0.20;;;8.80;99.90;;;;;;5041729;28;20214;-80
2022/12/29 05:42:01;;;;;;;0.20;0.20;;;8.80;99.90;;;;;;5056633;28;20193;-80
2022/12/29 05:44:27;;;;;;;0.20;0.20;;;8.80;99.90;;;;;;5062736;28;20764;-80
2022/12/29 05:46:52;;;;;;;0.20;0.20;;;8.80;99.90;;;;;;5064301;28;20186;-80
2022/12/29 05:49:18;;;;;;;0.20;0.20;;;8.80;99.90;;;;;;5053666;28;20187;-80
2022/12/29 05:51:43;;;;;;;0.20;0.20;;;8.70;99.90;;;;;;5062347;28;20197;-81
2022/12/29 05:54:09;;;;;;;0.20;0.20;;;8.80;99.90;;;;;;5068670;28;20563;-80
2022/12/29 05:56:34;;;;;;;0.20;0.20;;;8.80;99.90;;;;;;5041421;28;20677;-80
2022/12/29 05:59:00;;;;;;;0.20;0.20;;;8.90;99.90;;;;;;5068087;28;20186;-80
2022/12/29 06:01:26;;;;;;;0.20;0.20;;;8.90;99.90;;;;;;5061823;28;20225;-80
2022/12/29 06:03:51;;;;;;;0.20;0.20;;;8.90;99.90;;;;;;5055309;28;20226;-80
2022/12/29 06:06:17;;;;;;;0.20;0.20;;;8.90;99.90;;;;;;5060661;28;20197;-80
2022/12/29 06:08:42;;;;;;;0.20;0.20;;;9.00;99.90;;;;;;5059100;28;20218;-80
2022/12/29 06:11:07;;;;;;;0.20;0.20;;;8.90;99.90;;;;;;5038113;28;20209;-79
2022/12/29 06:13:33;;;;;;;0.20;0.20;;;9.00;99.90;;;;;;5060338;28;20191;-80
2022/12/29 06:15:58;;;;;;;0.20;0.20;;;8.90;99.90;;;;;;5044638;28;20195;-79
2022/12/29 06:18:24;;;;;;;0.20;0.20;;;9.00;99.90;;;;;;5061148;28;20264;-80
2022/12/29 06:20:49;;;;;;;0.20;0.20;;;8.90;99.90;;;;;;5060331;28;20716;-80
2022/12/29 06:23:16;;;;;;;0.20;0.20;;;8.90;99.90;;;;;;5054698;28;20188;-80
2022/12/29 06:25:42;;;;;;;0.20;0.20;;;9.00;99.90;;;;;;5058204;28;20596;-79
2022/12/29 06:28:07;;;;;;;0.30;0.30;;;8.90;99.90;;;;;;5038818;28;20491;-80
2022/12/29 06:30:33;;;;;;;0.20;0.20;;;9.00;99.90;;;;;;5059718;28;20261;-79
2022/12/29 06:32:59;;;;;;;0.20;0.20;;;8.90;99.90;;;;;;5061941;28;20213;-78
2022/12/29 06:35:25;;;;;;;0.20;0.20;;;9.00;99.90;;;;;;5058106;28;20189;-79
2022/12/29 06:37:50;;;;;;;0.20;0.20;;;9.00;99.90;;;;;;5070498;28;20444;-80
2022/12/29 06:40:17;;;;;;;0.20;0.20;;;9.00;99.90;;;;;;5053790;28;20480;-79
2022/12/29 06:42:42;;;;;;;0.20;0.20;;;8.90;99.90;;;;;;5045047;28;20213;-80
2022/12/29 06:45:08;;;;;;;0.20;0.20;;;8.90;99.90;;;;;;5040665;28;20566;-79
2022/12/29 06:47:34;;;;;;;0.20;0.20;;;8.90;99.90;;;;;;5045583;28;20185;-79
2022/12/29 06:50:00;;;;;;;0.20;0.20;;;9.00;99.90;;;;;;5050912;28;20185;-79
2022/12/29 06:52:26;;;;;;;0.20;0.20;;;9.00;99.90;;;;;;5082204;28;20447;-79
2022/12/29 06:54:52;;;;;;;0.20;0.20;;;8.90;99.90;;;;;;5062057;28;20455;-79
2022/12/29 06:57:17;;;;;;;0.20;0.20;;;9.00;99.90;;;;;;5061340;28;20662;-79
2022/12/29 06:59:43;;;;;;;0.20;0.20;;;9.00;99.90;;;;;;5060689;28;20236;-80
2022/12/29 07:02:10;;;;;;;0.30;0.30;;;9.00;99.90;;;;;;5061157;28;20193;-79
2022/12/29 07:04:36;;;;;;;0.20;0.20;;;9.10;99.90;;;;;;5066953;28;20229;-79
2022/12/29 07:07:02;;;;;;;0.20;0.20;;;9.00;99.90;;;;;;5064696;28;20923;-79
2022/12/29 07:09:27;;;;;;;0.30;0.30;;;9.00;99.90;;;;;;5068229;28;20645;-80
2022/12/29 07:11:53;;;;;;;0.20;0.20;;;9.00;99.90;;;;;;5060020;28;20457;-80
2022/12/29 07:14:18;;;;;;;0.20;0.20;;;9.10;99.90;;;;;;5066476;28;20186;-79
2022/12/29 07:16:44;;;;;;;0.20;0.20;;;9.10;99.90;;;;;;5069325;28;20784;-79
2022/12/29 07:19:09;;;;;;;0.20;0.20;;;9.10;99.90;;;;;;5068469;28;20656;-79
2022/12/29 07:21:35;;;;;;;0.20;0.20;;;9.10;99.90;;;;;;5066896;28;20649;-79
2022/12/29 07:24:00;;;;;;;0.20;0.20;;;9.00;99.90;;;;;;5057877;28;20280;-79
2022/12/29 07:26:27;;;;;;;0.20;0.20;;;9.10;99.90;;;;;;5050875;28;20182;-79
2022/12/29 07:28:53;;;;;;;0.20;0.20;;;9.10;99.90;;;;;;5068109;28;20186;-78
2022/12/29 07:31:21;;;;;;;0.20;0.20;;;9.00;99.90;;;;;;5067327;28;20436;-79
2022/12/29 07:33:47;;;;;;;0.20;0.20;;;9.00;99.90;;;;;;5062762;28;20194;-78
2022/12/29 07:36:14;;;;;;;0.20;0.20;;;9.00;99.90;;;;;;5066843;28;20440;-78
2022/12/29 07:38:41;;;;;;;0.20;0.20;;;9.00;99.90;;;;;;5060485;28;20847;-78
2022/12/29 07:41:06;;;;;;;0.20;0.20;;;9.00;99.90;;;;;;5040382;28;20999;-79
2022/12/29 07:43:32;;;;;;;0.20;0.20;;;9.00;99.90;;;;;;5062356;28;20446;-77
2022/12/29 07:45:57;;;;;;;0.20;0.20;;;9.00;99.90;;;;;;5068134;28;20553;-77
2022/12/29 07:48:23;;;;;;;0.20;0.20;;;9.20;99.90;;;;;;5064708;28;20261;-78
2022/12/29 07:50:48;;;;;;;0.20;0.20;;;9.30;99.90;;;;;;5065885;28;20213;-78
2022/12/29 07:53:14;;;;;;;0.20;0.20;;;9.20;99.90;;;;;;5069157;28;20196;-78
2022/12/29 07:55:40;;;;;;;0.20;0.20;;;9.10;99.90;;;;;;5065526;28;20198;-78
2022/12/29 07:58:06;;;;;;;0.20;0.20;;;9.20;99.90;;;;;;5068208;28;22092;-78
2022/12/29 08:00:31;;;;;;;0.20;0.20;;;9.10;99.90;;;;;;5040538;28;20226;-77
2022/12/29 08:02:57;;;;;;;0.20;0.20;;;9.00;99.90;;;;;;5065420;28;20240;-77
2022/12/29 08:05:22;;;;;;;0.20;0.20;;;9.10;99.90;;;;;;5038445;28;20194;-77
2022/12/29 08:07:48;;;;;;;0.20;0.20;;;9.10;99.90;;;;;;5020822;28;20187;-78
2022/12/29 08:10:14;;;;;;;0.20;0.20;;;9.10;99.90;;;;;;5043212;28;20727;-78
2022/12/29 08:12:41;;;;;;;0.20;0.20;;;9.10;99.90;;;;;;5047247;28;20202;-78
2022/12/29 08:15:08;;;;;;;0.20;0.20;;;9.00;99.90;;;;;;5046080;28;20457;-78
2022/12/29 08:17:33;;;;;;;0.20;0.20;;;9.10;99.90;;;;;;5051099;28;20438;-78
2022/12/29 08:19:59;;;;;;;0.20;0.20;;;9.10;99.90;;;;;;5046255;28;20852;-77
2022/12/29 08:22:25;;;;;;;0.20;0.20;;;9.00;99.90;;;;;;5044185;28;20191;-77
2022/12/29 08:24:51;;;;;;;0.20;0.20;;;9.00;99.90;;;;;;5049046;28;20190;-78
2022/12/29 08:27:17;;;;;;;0.20;0.20;;;9.00;99.90;;;;;;5042289;28;20187;-77
2022/12/29 08:29:43;;;;;;;0.20;0.20;;;9.00;99.90;;;;;;5030724;28;20410;-77
2022/12/29 08:32:08;;;;;;;0.20;0.20;;;9.00;99.90;;;;;;5043465;28;20456;-77
2022/12/29 08:34:34;;;;;;;0.20;0.20;;;9.00;99.90;;;;;;5027040;28;20183;-77
2022/12/29 08:37:00;;;;;;;0.20;0.20;;;9.00;99.90;;;;;;5042175;28;20206;-77
2022/12/29 08:39:25;;;;;;;0.20;0.20;;;9.00;99.90;;;;;;5049139;28;20549;-77
2022/12/29 08:41:50;;;;;;;0.20;0.20;;;9.00;99.90;;;;;;5031832;28;20230;-78
2022/12/29 08:44:16;;;;;;;0.20;0.20;;;9.00;99.90;;;;;;5049552;28;20206;-77
2022/12/29 08:46:42;;;;;;;0.20;0.20;;;9.00;99.90;;;;;;5041717;28;20186;-78
2022/12/29 08:49:08;;;;;;;0.20;0.20;;;9.00;99.90;;;;;;5041004;28;20281;-78
2022/12/29 08:51:33;;;;;;;0.20;0.20;;;9.20;99.90;;;;;;5032287;28;20171;-78
2022/12/29 08:53:59;;;;;;;0.20;0.20;;;9.20;99.90;;;;;;5047961;28;20190;-77
2022/12/29 08:56:26;;;;;;;0.20;0.20;;;9.00;99.90;;;;;;5041643;28;20247;-77
2022/12/29 08:58:52;;;;;;;0.20;0.20;;;9.00;99.90;;;;;;5042472;28;20191;-77
2022/12/29 09:01:19;;;;;;;0.20;0.20;;;9.10;99.90;;;;;;5029529;28;20901;-77
2022/12/29 09:03:45;;;;;;;0.20;0.20;;;9.10;99.90;;;;;;5047971;28;20472;-77
2022/12/29 09:06:10;;;;;;;0.20;0.20;;;9.10;99.90;;;;;;5049418;28;20544;-77
2022/12/29 09:08:36;;;;;;;0.20;0.20;;;9.10;99.90;;;;;;5012375;28;21248;-77
2022/12/29 09:11:20;;;;;;;0.20;0.20;;;9.00;99.90;;;;;;5050555;28;20187;-78
2022/12/29 09:13:46;;;;;;;0.20;0.20;;;9.00;99.90;;;;;;5055599;28;20642;-77
2022/12/29 09:16:12;;;;;;;0.20;0.20;;;9.00;99.90;;;;;;5044757;28;20560;-77
2022/12/29 09:18:38;;;;;;;0.20;0.20;;;9.10;99.90;;;;;;5047324;28;20441;-77
2022/12/29 09:21:06;;;;;;;0.20;0.20;;;9.20;99.90;;;;;;5056015;28;20468;-77
2022/12/29 09:23:33;;;;;;;0.20;0.20;;;9.20;99.90;;;;;;5039316;28;20447;-77
2022/12/29 09:25:59;;;;;;;0.20;0.20;;;9.30;99.90;;;;;;5044061;28;20803;-77
2022/12/29 09:28:24;;;;;;;0.20;0.20;;;9.40;99.90;;;;;;5047834;28;20445;-77
2022/12/29 09:30:50;;;;;;;0.20;0.20;;;9.40;99.90;;;;;;5042644;28;20674;-77
2022/12/29 09:33:16;;;;;;;0.20;0.20;;;9.40;99.90;;;;;;5056677;28;20196;-76
2022/12/29 09:35:49;;;;;;;0.20;0.20;;;9.40;99.90;;;;;;5038367;28;20214;-77
2022/12/29 09:38:15;;;;;;;0.20;0.20;;;9.50;99.90;;;;;;5044650;28;20191;-78
2022/12/29 09:40:43;;;;;;;0.20;0.20;;;9.60;99.90;;;;;;5045351;28;20491;-77
2022/12/29 09:43:45;;;;;;;0.20;0.20;;;9.50;99.90;;;;;;5064065;28;20535;-77
2022/12/29 09:46:18;;;;;;;0.20;0.20;;;9.60;99.90;;;;;;4990337;28;20456;-77
2022/12/29 09:48:50;;;;;;;0.20;0.20;;;9.60;99.90;;;;;;5035659;28;20952;-78
2022/12/29 09:51:20;;;;;;;0.20;0.20;;;9.70;99.90;;;;;;5029591;28;20853;-77
2022/12/29 09:53:55;;;;;;;0.20;0.20;;;9.70;99.90;;;;;;5040432;28;20445;-78
2022/12/29 09:56:23;;;;;;;0.20;0.20;;;9.70;99.90;;;;;;5045591;28;20457;-77
2022/12/29 09:59:02;;;;;;;0.20;0.20;;;9.70;99.90;;;;;;5047464;28;20446;-78
2022/12/29 10:01:36;;;;;;;0.20;0.20;;;9.80;99.90;;;;;;5027755;28;20572;-78
2022/12/29 10:04:04;;;;;;;0.20;0.20;;;10.00;99.90;;;;;;5040172;28;20500;-78
2022/12/29 10:06:43;;;;;;;0.20;0.20;;;10.20;99.90;;;;;;5039377;28;20441;-77
2022/12/29 10:09:17;;;;;;;0.20;0.20;;;10.20;99.90;;;;;;5048545;28;20457;-78
2022/12/29 10:12:12;;;;;;;0.20;0.20;;;10.40;99.90;;;;;;5049958;28;20583;-78
2022/12/29 10:15:24;;;;;;;0.20;0.20;;;10.60;99.90;;;;;;5017127;28;20441;-77
2022/12/29 10:18:23;;;;;;;0.20;0.20;;;10.40;99.90;;;;;;5043452;28;20502;-78
2022/12/29 10:21:08;;;;;;;0.20;0.20;;;10.20;99.90;;;;;;5021894;28;20520;-77
2022/12/29 10:23:49;;;;;;;0.20;0.20;;;10.00;99.90;;;;;;5023382;28;20881;-78
2022/12/29 10:26:42;;;;;;;0.20;0.20;;;10.00;99.90;;;;;;5047548;28;20452;-78
2022/12/29 10:29:37;;;;;;;0.20;0.20;;;9.90;99.90;;;;;;5028408;28;20437;-77
2022/12/29 10:32:06;;;;;;;0.20;0.20;;;9.80;99.90;;;;;;5040711;28;20508;-78
2022/12/29 10:34:43;;;;;;;0.20;0.20;;;9.80;99.90;;;;;;5048790;28;20433;-78
2022/12/29 10:37:27;;;;;;;0.20;0.20;;;9.90;99.90;;;;;;5049030;28;20541;-78
2022/12/29 10:39:54;;;;;;;0.20;0.20;;;9.90;99.90;;;;;;5044466;28;20464;-78
2022/12/29 10:42:33;;;;;;;0.20;0.20;;;10.00;99.90;;;;;;5033601;28;20502;-78
2022/12/29 10:44:59;;;;;;;0.20;0.20;;;10.00;99.90;;;;;;5028733;28;20444;-78
2022/12/29 10:47:34;;;;;;;0.20;0.20;;;10.00;99.90;;;;;;5045264;28;20449;-78
2022/12/29 10:50:01;;;;;;;0.17;0.17;;;10.10;99.90;;;;;;5045351;28;20459;-78
2022/12/29 10:52:28;;;;;;;0.20;0.20;;;10.00;99.90;;;;;;5043967;28;20473;-77
2022/12/29 10:55:05;;;;;;;0.20;0.20;;;10.00;99.90;;;;;;5029709;28;20507;-78
2022/12/29 10:57:37;;;;;;;0.20;0.20;;;10.00;99.90;;;;;;5047556;28;20453;-78
2022/12/29 11:00:15;;;;;;;0.20;0.20;;;9.90;99.90;;;;;;5038469;28;20558;-78
2022/12/29 11:02:50;;;;;;;0.20;0.20;;;10.00;99.90;;;;;;5046463;28;20439;-77
2022/12/29 11:05:46;;;;;;;0.20;0.20;;;10.10;99.90;;;;;;5044863;28;20456;-77
2022/12/29 11:08:16;;;;;;;0.20;0.20;;;10.50;99.90;;;;;;5045306;28;20947;-78
2022/12/29 11:10:43;;;;;;;0.20;0.20;;;10.50;99.90;;;;;;5033561;28;20812;-78
2022/12/29 11:13:23;;;;;;;0.20;0.20;;;10.50;99.90;;;;;;5020533;28;20450;-78
2022/12/29 11:15:50;;;;;;;0.20;0.20;;;10.40;99.90;;;;;;5037737;28;20449;-77
2022/12/29 11:18:37;;;;;;;0.20;0.20;;;10.30;99.90;;;;;;5029906;28;20798;-77
2022/12/29 11:21:23;;;;;;;0.20;0.20;;;10.20;99.90;;;;;;5043620;28;20630;-75
2022/12/29 11:24:02;;;;;;;0.20;0.20;;;10.20;99.90;;;;;;5049357;28;20477;-77
2022/12/29 11:26:30;;;;;;;0.20;0.20;;;10.10;99.90;;;;;;5024374;28;20449;-77
2022/12/29 11:29:08;;;;;;;0.20;0.20;;;10.00;99.90;;;;;;5044090;28;20448;-79
2022/12/29 11:31:47;;;;;;;0.20;0.20;;;9.90;99.90;;;;;;5038324;28;20453;-76
2022/12/29 11:34:25;;;;;;;0.20;0.20;;;9.90;99.90;;;;;;5046366;28;20458;-76
2022/12/29 11:36:53;;;;;;;0.20;0.20;;;9.80;99.90;;;;;;5050338;28;20471;-76
2022/12/29 11:39:45;;;;;;;0.20;0.20;;;9.80;99.90;;;;;;5030997;28;20536;-76
2022/12/29 11:42:16;;;;;;;0.20;0.20;;;9.70;99.90;;;;;;5041111;28;20959;-76
2022/12/29 11:44:47;;;;;;;0.20;0.20;;;9.70;99.90;;;;;;5027407;28;20448;-76
2022/12/29 11:47:25;;;;;;;0.20;0.20;;;9.50;99.90;;;;;;5044951;28;20445;-76
2022/12/29 11:49:54;;;;;;;0.20;0.20;;;9.50;99.90;;;;;;5050389;28;20860;-76
2022/12/29 11:52:26;;;;;;;0.20;0.20;;;9.40;99.90;;;;;;5028452;28;20445;-77
2022/12/29 11:54:54;;;;;;;0.20;0.20;;;9.30;99.90;;;;;;5043728;28;20425;-76
2022/12/29 11:57:21;;;;;;;0.20;0.20;;;9.30;99.90;;;;;;5044828;28;20437;-76
2022/12/29 11:59:55;;;;;;;0.20;0.20;;;9.40;99.90;;;;;;5049925;28;20546;-75
2022/12/29 12:02:31;;;;;;;0.20;0.20;;;9.50;99.90;;;;;;5050062;28;20488;-76
2022/12/29 12:05:05;;;;;;;0.20;0.20;;;9.50;99.90;;;;;;5036406;28;20847;-76
2022/12/29 12:07:42;;;;;;;0.20;0.20;;;9.50;99.90;;;;;;5045796;28;20630;-75
2022/12/29 12:10:24;;;;;;;0.20;0.20;;;9.60;99.90;;;;;;5049386;28;20421;-76
2022/12/29 12:13:14;;;;;;;0.20;0.20;;;9.70;99.90;;;;;;5041478;28;20502;-76
2022/12/29 12:15:54;;;;;;;0.20;0.20;;;9.70;99.90;;;;;;5046181;28;20441;-76
2022/12/29 12:18:34;;;;;;;0.20;0.20;;;9.70;99.90;;;;;;5050350;28;20544;-76
2022/12/29 12:21:11;;;;;;;0.20;0.20;;;9.60;99.90;;;;;;5049718;28;20500;-76
2022/12/29 12:23:52;;;;;;;0.20;0.20;;;9.50;99.90;;;;;;5021269;28;20464;-76
2022/12/29 12:26:27;;;;;;;0.20;0.20;;;9.40;99.90;;;;;;5038247;28;20457;-76
2022/12/29 12:28:59;;;;;;;0.30;0.30;;;9.30;99.90;;;;;;5028402;28;20429;-76
2022/12/29 12:31:45;;;;;;;0.20;0.20;;;9.20;99.90;;;;;;5025066;28;20448;-77
2022/12/29 12:34:19;;;;;;;0.20;0.20;;;9.10;99.90;;;;;;5044882;28;20439;-77
2022/12/29 12:36:53;;;;;;;0.20;0.20;;;9.00;99.90;;;;;;5040707;28;20532;-77
2022/12/29 12:39:21;;;;;;;0.20;0.20;;;9.00;99.90;;;;;;5024836;28;20987;-77
2022/12/29 12:41:46;;;;;;;0.20;0.20;;;8.90;99.90;;;;;;5030372;28;20933;-77
2022/12/29 12:44:18;;;;;;;0.20;0.20;;;8.90;99.90;;;;;;5027210;28;20533;-77
2022/12/29 12:47:16;;;;;;;0.20;0.20;;;8.90;99.90;;;;;;5042695;28;20194;-77
2022/12/29 12:50:16;;;;;;;0.20;0.20;;;8.70;99.90;;;;;;5013061;28;20492;-77
2022/12/29 12:52:57;;;;;;;0.20;0.20;;;8.70;99.90;;;;;;5032758;28;20906;-76
2022/12/29 12:55:35;;;;;;;0.20;0.20;;;8.70;99.90;;;;;;5028736;28;20521;-77
2022/12/29 12:58:29;;;;;;;0.20;0.20;;;8.60;99.90;;;;;;5042726;28;21010;-76
2022/12/29 13:01:18;;;;;;;0.20;0.20;;;8.60;99.90;;;;;;5045420;28;21136;-77
2022/12/29 13:04:21;;;;;;;0.20;0.20;;;8.60;99.90;;;;;;5052641;28;20470;-77
2022/12/29 13:07:04;;;;;;;0.20;0.20;;;8.50;99.90;;;;;;5067957;28;20448;-77
2022/12/29 13:09:43;;;;;;;0.20;0.20;;;8.50;99.90;;;;;;5060800;28;20443;-76
2022/12/29 13:12:26;;;;;;;0.20;0.20;;;8.60;99.90;;;;;;5068066;28;20539;-76
2022/12/29 13:14:57;;;;;;;0.20;0.20;;;8.50;99.90;;;;;;5063636;28;20436;-76
2022/12/29 13:17:39;;;;;;;0.20;0.20;;;8.50;99.90;;;;;;5043428;28;20451;-76
2022/12/29 13:20:29;;;;;;;0.20;0.20;;;8.50;99.90;;;;;;5058680;28;20519;-75
2022/12/29 13:23:04;;;;;;;0.20;0.20;;;8.50;99.90;;;;;;5067496;28;20472;-75
2022/12/29 13:25:55;;;;;;;0.20;0.20;;;8.40;99.90;;;;;;5041038;28;20447;-76
2022/12/29 13:28:46;;;;;;;0.20;0.20;;;8.40;99.90;;;;;;5061037;28;20455;-76
2022/12/29 13:31:28;;;;;;;0.20;0.20;;;8.40;99.90;;;;;;5036683;28;20446;-76
2022/12/29 13:34:36;;;;;;;0.20;0.20;;;8.30;99.90;;;;;;5059441;28;21183;-75
2022/12/29 13:37:09;;;;;;;0.20;0.20;;;8.30;99.90;;;;;;5041930;28;20452;-75
2022/12/29 13:39:40;;;;;;;0.10;0.10;;;8.30;99.90;;;;;;5044096;28;20447;-75
2022/12/29 13:42:07;;;;;;;0.20;0.20;;;8.40;99.90;;;;;;5063240;28;21259;-74
2022/12/29 13:44:51;;;;;;;0.20;0.20;;;8.40;99.90;;;;;;5063079;28;20467;-75
2022/12/29 13:47:28;;;;;;;0.20;0.20;;;8.40;99.90;;;;;;5057392;28;20452;-75
2022/12/29 13:49:56;;;;;;;0.20;0.20;;;8.30;99.90;;;;;;5050976;28;20537;-76
2022/12/29 13:52:28;;;;;;;0.20;0.20;;;8.40;99.90;;;;;;5056556;28;20933;-76
2022/12/29 13:55:02;;;;;;;0.20;0.20;;;8.40;99.90;;;;;;5063293;28;20448;-76